METAR Data

Data at: 0104 UTC 23 Mar 2019

METAR for:KATL (Atlanta/Hartsfield-J, GA, US)
Text:KATL 230052Z 27005KT 10SM CLR 14/M01 A3005 RMK AO2 SLP176 T01441011
Temperature: 14.4°C ( 58°F)
Dewpoint: -1.1°C ( 30°F) [RH = 34%]
Pressure (altimeter):30.05 inches Hg (1017.7 mb) [Sea level pressure: 1017.6 mb]
Winds:from the W (270 degrees) at 6 MPH (5 knots; 2.6 m/s)
Visibility:10 or more sm (16+ km)
Ceiling:at least 12,000 feet AGL
Clouds:sky clear below 12,000 feet AGL